createdAt,value
2023-05-20T00:01:52.000Z,33.63
2023-05-20T00:06:59.433Z,33.81
2023-05-20T00:12:10.879Z,33.88
2023-05-20T00:17:18.192Z,33.92
2023-05-20T00:22:25.507Z,33.89
2023-05-20T00:27:32.922Z,33.88
2023-05-20T00:32:40.128Z,33.92
2023-05-20T00:37:50.712Z,34.00
2023-05-20T00:42:57.981Z,33.95
2023-05-20T00:48:05.316Z,33.97
2023-05-20T00:53:12.798Z,34.05
2023-05-20T00:58:23.131Z,33.97
2023-05-20T01:09:34.443Z,33.83
2023-05-20T01:15:56.913Z,33.76
2023-05-20T01:20:41.035Z,33.63
2023-05-20T01:37:04.114Z,33.75
2023-05-20T01:42:54.706Z,33.72
2023-05-20T01:48:59.746Z,33.78
2023-05-20T01:53:13.426Z,33.86
2023-05-20T01:59:05.157Z,34.15
2023-05-20T02:05:07.609Z,34.21
2023-05-20T02:10:07.921Z,34.22
2023-05-20T02:15:57.906Z,34.31
2023-05-20T02:21:45.557Z,34.53
2023-05-20T02:35:04.755Z,34.81
2023-05-20T02:40:44.500Z,34.91
2023-05-20T02:46:23.411Z,34.99
2023-05-20T02:51:55.207Z,34.98
2023-05-20T02:57:44.476Z,35.19
2023-05-20T03:03:39.343Z,35.23
2023-05-20T03:14:42.478Z,35.91
2023-05-20T03:20:06.572Z,36.21
2023-05-20T03:25:49.006Z,36.34
2023-05-20T03:31:39.563Z,36.37
2023-05-20T03:42:09.649Z,36.81
2023-05-20T03:46:22.744Z,36.99
2023-05-20T03:52:10.045Z,37.35
2023-05-20T03:58:37.795Z,37.65
2023-05-20T04:03:58.979Z,37.97
2023-05-20T04:08:58.378Z,38.17
2023-05-20T04:14:52.005Z,38.41
2023-05-20T04:20:17.520Z,38.46
2023-05-20T04:25:56.805Z,38.76
2023-05-20T04:31:34.622Z,38.70
2023-05-20T04:37:26.875Z,38.80
2023-05-20T04:43:13.508Z,38.96
2023-05-20T04:49:01.635Z,39.13
2023-05-20T04:56:10.407Z,39.12
2023-05-20T05:00:49.744Z,39.25
2023-05-20T05:06:36.965Z,39.27
2023-05-20T05:11:45.360Z,39.47
2023-05-20T05:16:55.623Z,39.44
2023-05-20T05:22:00.586Z,39.45
2023-05-20T05:27:08.331Z,39.59
2023-05-20T05:32:16.315Z,39.70
2023-05-20T05:37:37.515Z,39.44
2023-05-20T05:47:59.033Z,39.39
2023-05-20T05:53:47.249Z,39.42
2023-05-20T06:00:25.514Z,39.24
2023-05-20T06:05:32.659Z,39.41
2023-05-20T06:11:20.592Z,39.44
2023-05-20T06:18:33.047Z,39.19
2023-05-20T06:22:39.284Z,39.47
2023-05-20T06:32:56.482Z,39.67
2023-05-20T06:38:10.446Z,39.38
2023-05-20T06:43:25.484Z,39.38
2023-05-20T06:49:28.620Z,39.17
2023-05-20T06:56:30.290Z,39.17
2023-05-20T07:00:26.712Z,39.16
2023-05-20T07:06:12.658Z,39.28
2023-05-20T07:11:24.458Z,40.21
2023-05-20T07:17:27.050Z,39.72
2023-05-20T07:23:05.731Z,39.58
2023-05-20T07:28:19.380Z,39.46
2023-05-20T07:34:15.873Z,39.00
2023-05-20T07:44:38.330Z,39.27
2023-05-20T07:50:22.822Z,40.53
2023-05-20T07:56:10.352Z,39.42
2023-05-20T08:01:32.578Z,41.50
2023-05-20T08:06:40.351Z,40.23
2023-05-20T08:12:41.130Z,40.55
2023-05-20T08:19:15.768Z,39.83
2023-05-20T08:25:55.696Z,39.23
2023-05-20T08:30:22.137Z,39.78
2023-05-20T08:35:32.452Z,39.20
2023-05-20T08:40:40.990Z,39.57
2023-05-20T08:47:03.111Z,39.58
2023-05-20T08:58:24.962Z,39.78
2023-05-20T09:03:51.214Z,39.99
2023-05-20T09:09:29.464Z,41.63
2023-05-20T09:14:38.777Z,42.32
2023-05-20T09:19:46.055Z,41.63
2023-05-20T09:24:53.305Z,40.32
2023-05-20T09:30:00.507Z,40.10
2023-05-20T09:35:07.708Z,40.04
2023-05-20T09:40:14.971Z,39.74
2023-05-20T09:45:22.273Z,39.62
2023-05-20T09:50:37.335Z,39.65
2023-05-20T09:55:39.786Z,39.54
2023-05-20T10:00:47.429Z,39.47
2023-05-20T10:05:56.456Z,39.17
2023-05-20T10:11:25.712Z,39.13
2023-05-20T10:16:33.016Z,39.14
2023-05-20T10:21:40.553Z,38.83
2023-05-20T10:26:47.928Z,38.87
2023-05-20T10:31:55.235Z,38.87
2023-05-20T10:37:08.537Z,38.75
2023-05-20T10:42:16.848Z,38.64
2023-05-20T10:47:25.973Z,38.72
2023-05-20T10:52:31.645Z,38.44
2023-05-20T10:57:50.073Z,38.26
2023-05-20T11:02:56.113Z,38.31
2023-05-20T11:08:06.160Z,38.30
2023-05-20T11:13:50.563Z,38.66
2023-05-20T11:18:57.890Z,38.65
2023-05-20T11:24:06.293Z,38.75
2023-05-20T11:29:24.593Z,38.73
2023-05-20T11:34:57.575Z,38.66
2023-05-20T11:40:22.886Z,38.92
2023-05-20T11:45:23.202Z,38.75
2023-05-20T11:51:08.598Z,38.65
2023-05-20T11:55:43.586Z,38.39
2023-05-20T12:01:14.007Z,38.51
2023-05-20T12:06:21.954Z,38.52
2023-05-20T12:11:34.315Z,39.03
2023-05-20T12:16:41.758Z,38.85
2023-05-20T12:21:50.215Z,39.19
2023-05-20T12:27:05.227Z,38.64
2023-05-20T12:32:09.724Z,38.99
2023-05-20T12:38:54.896Z,38.89
2023-05-20T12:43:51.512Z,39.20
2023-05-20T12:48:42.578Z,39.38
2023-05-20T12:53:55.853Z,39.46
2023-05-20T13:00:00.502Z,39.44
2023-05-20T13:05:07.934Z,39.33
2023-05-20T13:10:30.343Z,39.72
2023-05-20T13:15:37.978Z,39.13
2023-05-20T13:20:45.376Z,40.06
2023-05-20T13:25:59.549Z,40.19
2023-05-20T13:31:07.225Z,39.86
2023-05-20T13:36:15.758Z,40.05
2023-05-20T13:41:23.925Z,39.82
2023-05-20T13:46:31.474Z,40.04
2023-05-20T13:51:39.232Z,40.87
2023-05-20T13:56:46.643Z,41.10
2023-05-20T14:01:54.071Z,40.72
2023-05-20T14:07:01.255Z,40.61
2023-05-20T14:12:26.899Z,41.16
2023-05-20T14:17:39.107Z,40.01
2023-05-20T14:22:46.661Z,40.76
2023-05-20T14:27:55.831Z,40.26
2023-05-20T14:33:03.529Z,40.39
2023-05-20T14:38:10.780Z,40.28
2023-05-20T14:43:19.132Z,42.04
2023-05-20T14:48:27.647Z,40.67
2023-05-20T14:53:39.782Z,41.56
2023-05-20T14:58:47.350Z,42.60
2023-05-20T15:03:54.842Z,42.71
2023-05-20T15:09:02.213Z,42.44
2023-05-20T15:14:09.966Z,43.12
2023-05-20T15:19:17.486Z,42.38
2023-05-20T15:24:26.756Z,41.93
2023-05-20T15:29:34.115Z,42.49
2023-05-20T15:34:41.483Z,42.25
2023-05-20T15:39:48.848Z,41.94
2023-05-20T15:44:56.536Z,42.24
2023-05-20T15:50:05.834Z,42.63
2023-05-20T15:55:14.604Z,42.21
2023-05-20T16:00:21.910Z,42.02
2023-05-20T16:05:33.998Z,42.76
2023-05-20T16:10:50.119Z,41.90
2023-05-20T16:16:00.935Z,43.55
2023-05-20T16:21:26.991Z,44.61
2023-05-20T16:27:14.555Z,42.50
2023-05-20T16:32:28.163Z,44.00
2023-05-20T16:37:58.067Z,43.95
2023-05-20T16:43:09.211Z,43.31
2023-05-20T16:48:22.478Z,43.04
2023-05-20T16:53:43.763Z,43.33
2023-05-20T16:58:46.321Z,43.99
2023-05-20T17:04:05.306Z,43.50
2023-05-20T17:09:12.676Z,44.06
2023-05-20T17:14:23.385Z,43.43
2023-05-20T17:19:29.788Z,45.34
2023-05-20T17:24:43.578Z,45.09
2023-05-20T17:29:55.259Z,45.98
2023-05-20T17:35:03.107Z,46.34
2023-05-20T17:40:11.132Z,46.92
2023-05-20T17:45:25.222Z,46.87
2023-05-20T17:50:32.046Z,46.21
2023-05-20T17:55:40.211Z,46.67
2023-05-20T18:00:55.453Z,47.29
2023-05-20T18:06:07.995Z,48.17
2023-05-20T18:11:15.910Z,47.88
2023-05-20T18:16:23.957Z,47.51
2023-05-20T18:21:38.119Z,47.85
2023-05-20T18:26:43.955Z,47.49
2023-05-20T18:31:51.977Z,47.67
2023-05-20T18:36:59.751Z,47.93
2023-05-20T18:42:09.429Z,47.52
2023-05-20T18:47:17.317Z,47.17
2023-05-20T18:52:26.359Z,47.56
2023-05-20T18:57:34.416Z,47.29
2023-05-20T19:02:42.488Z,46.21
2023-05-20T19:07:53.405Z,45.87
2023-05-20T19:13:01.785Z,46.58
2023-05-20T19:18:08.304Z,45.98
2023-05-20T19:23:16.740Z,46.81
2023-05-20T19:28:32.467Z,46.81
2023-05-20T19:33:38.345Z,46.20
2023-05-20T19:38:46.457Z,46.61
2023-05-20T19:43:54.624Z,46.18
2023-05-20T19:49:06.968Z,46.33
2023-05-20T19:54:48.788Z,45.22
2023-05-20T19:59:57.495Z,46.49
2023-05-20T20:05:07.493Z,45.60
2023-05-20T20:10:18.526Z,45.33
2023-05-20T20:15:41.047Z,45.70
2023-05-20T20:21:24.770Z,45.52
2023-05-20T20:27:07.868Z,45.40
2023-05-20T20:37:36.137Z,45.12
2023-05-20T20:42:44.465Z,45.28
2023-05-20T20:44:04.590Z,45.30
2023-05-20T20:48:30.296Z,44.50
2023-05-20T20:54:12.936Z,42.46
2023-05-20T20:59:27.471Z,42.64
2023-05-20T21:05:11.548Z,42.35
2023-05-20T21:10:26.053Z,42.17
2023-05-20T21:15:42.399Z,41.97
2023-05-20T21:21:06.550Z,41.88
2023-05-20T21:26:20.673Z,42.02
2023-05-20T21:31:23.858Z,41.74
2023-05-20T21:36:41.068Z,41.59
2023-05-20T21:42:01.874Z,41.52
2023-05-20T21:47:13.331Z,41.47
2023-05-20T21:52:21.040Z,41.65
2023-05-20T21:57:33.203Z,42.12
2023-05-20T22:03:16.684Z,41.67
2023-05-20T22:08:39.132Z,41.59
2023-05-20T22:14:21.471Z,41.84
2023-05-20T22:20:08.302Z,41.75
2023-05-20T22:25:18.944Z,41.91
2023-05-20T22:30:27.763Z,41.42
2023-05-20T22:36:27.351Z,41.75
2023-05-20T22:41:00.163Z,41.71
2023-05-20T22:46:09.161Z,41.15
2023-05-20T22:51:25.096Z,41.02
2023-05-20T22:56:44.735Z,41.08
2023-05-20T23:01:56.526Z,40.88
2023-05-20T23:07:48.628Z,40.64
2023-05-20T23:13:30.941Z,40.58
2023-05-20T23:18:51.393Z,40.64
2023-05-20T23:24:06.735Z,40.83
2023-05-20T23:35:15.277Z,40.88
2023-05-20T23:47:35.780Z,40.68
2023-05-20T23:56:58.675Z,40.85
